createdAt,value
2023-01-12T00:02:08.529Z,13.93
2023-01-12T00:04:36.745Z,18.20
2023-01-12T00:07:07.438Z,18.40
2023-01-12T00:09:35.570Z,20.67
2023-01-12T00:12:06.007Z,11.17
2023-01-12T00:14:34.328Z,16.67
2023-01-12T00:17:02.183Z,10.60
2023-01-12T00:19:30.928Z,14.43
2023-01-12T00:22:02.222Z,13.70
2023-01-12T00:24:33.794Z,9.30
2023-01-12T00:27:03.984Z,14.30
2023-01-12T00:29:32.198Z,16.50
2023-01-12T00:32:00.721Z,14.03
2023-01-12T00:34:29.774Z,10.40
2023-01-12T00:36:58.351Z,14.17
2023-01-12T00:39:26.162Z,14.40
2023-01-12T00:42:12.916Z,11.00
2023-01-12T00:44:58.028Z,16.60
2023-01-12T00:47:25.872Z,13.13
2023-01-12T00:49:54.178Z,15.17
2023-01-12T00:52:30.688Z,14.83
2023-01-12T00:54:59.319Z,14.77
2023-01-12T00:57:29.481Z,13.67
2023-01-12T00:59:59.420Z,17.53
2023-01-12T01:02:28.058Z,12.53
2023-01-12T01:04:56.217Z,11.93
2023-01-12T01:07:24.721Z,9.43
2023-01-12T01:09:52.638Z,11.17
2023-01-12T01:12:20.811Z,14.23
2023-01-12T01:14:49.875Z,10.60
2023-01-12T01:17:17.724Z,11.37
2023-01-12T01:19:45.525Z,13.47
2023-01-12T01:22:13.457Z,13.00
2023-01-12T01:24:41.448Z,15.23
2023-01-12T01:27:09.214Z,11.03
2023-01-12T01:29:37.046Z,13.97
2023-01-12T01:32:06.620Z,12.37
2023-01-12T01:34:34.929Z,10.07
2023-01-12T01:37:02.751Z,10.30
2023-01-12T01:39:30.509Z,11.87
2023-01-12T01:41:58.286Z,13.70
2023-01-12T01:44:49.826Z,12.77
2023-01-12T01:47:26.092Z,7.60
2023-01-12T01:49:57.176Z,10.40
2023-01-12T01:52:29.651Z,12.27
2023-01-12T01:55:00.666Z,8.57
2023-01-12T01:57:34.700Z,10.67
2023-01-12T02:00:03.838Z,12.17
2023-01-12T02:02:33.306Z,4.77
2023-01-12T02:05:01.847Z,10.50
2023-01-12T02:07:29.727Z,10.90
2023-01-12T02:09:57.406Z,9.97
2023-01-12T02:12:42.667Z,9.60
2023-01-12T02:15:28.398Z,8.33
2023-01-12T02:18:10.686Z,10.30
2023-01-12T02:20:56.228Z,7.07
2023-01-12T02:23:45.234Z,7.27
2023-01-12T02:27:15.674Z,9.93
2023-01-12T02:30:21.798Z,8.17
2023-01-12T02:33:00.584Z,6.23
2023-01-12T02:35:33.979Z,10.17
2023-01-12T02:38:12.417Z,10.83
2023-01-12T02:40:48.960Z,10.13
2023-01-12T02:43:24.276Z,8.50
2023-01-12T02:45:56.129Z,10.00
2023-01-12T02:48:29.532Z,8.03
2023-01-12T02:51:04.675Z,12.77
2023-01-12T02:53:43.122Z,6.10
2023-01-12T02:56:13.084Z,8.50
2023-01-12T02:58:46.179Z,10.20
2023-01-12T03:01:16.352Z,11.47
2023-01-12T03:03:46.341Z,9.97
2023-01-12T03:06:17.470Z,7.27
2023-01-12T03:08:47.212Z,9.13
2023-01-12T03:11:16.349Z,8.37
2023-01-12T03:13:48.916Z,6.73
2023-01-12T03:16:21.010Z,6.43
2023-01-12T03:18:54.418Z,8.23
2023-01-12T03:21:30.662Z,8.33
2023-01-12T03:24:03.636Z,11.60
2023-01-12T03:26:34.219Z,14.07
2023-01-12T03:29:09.358Z,6.17
2023-01-12T03:31:38.182Z,6.50
2023-01-12T03:34:08.130Z,8.80
2023-01-12T03:36:46.325Z,8.37
2023-01-12T03:39:20.540Z,5.20
2023-01-12T03:41:57.584Z,12.03
2023-01-12T03:44:32.561Z,5.53
2023-01-12T03:47:04.965Z,3.43
2023-01-12T03:49:40.734Z,5.73
2023-01-12T03:52:11.091Z,7.80
2023-01-12T03:54:41.650Z,9.63
2023-01-12T03:57:12.085Z,12.40
2023-01-12T03:59:40.003Z,7.93
2023-01-12T04:02:07.790Z,6.97
2023-01-12T04:04:37.033Z,5.97
2023-01-12T04:07:04.818Z,6.60
2023-01-12T04:09:32.575Z,11.90
2023-01-12T04:12:12.050Z,6.07
2023-01-12T04:14:40.608Z,8.80
2023-01-12T04:17:09.622Z,12.13
2023-01-12T04:19:38.997Z,4.63
2023-01-12T04:22:24.282Z,7.37
2023-01-12T04:24:51.963Z,7.60
2023-01-12T04:27:20.017Z,8.13
2023-01-12T04:29:47.768Z,6.03
2023-01-12T04:32:15.666Z,5.47
2023-01-12T04:34:45.103Z,8.33
2023-01-12T04:37:13.204Z,12.93
2023-01-12T04:39:40.912Z,8.30
2023-01-12T04:42:28.979Z,7.53
2023-01-12T04:44:56.781Z,7.93
2023-01-12T04:47:24.583Z,7.87
2023-01-12T04:49:53.776Z,5.27
2023-01-12T04:52:21.614Z,9.47
2023-01-12T04:54:49.288Z,7.73
2023-01-12T04:57:17.115Z,6.73
2023-01-12T04:59:44.900Z,7.00
2023-01-12T05:02:12.721Z,6.13
2023-01-12T05:04:40.551Z,7.53
2023-01-12T05:07:09.726Z,6.13
2023-01-12T05:09:54.928Z,6.53
2023-01-12T05:12:23.584Z,5.93
2023-01-12T05:14:51.383Z,6.90
2023-01-12T05:17:19.261Z,5.83
2023-01-12T05:19:48.326Z,5.97
2023-01-12T05:22:17.692Z,6.90
2023-01-12T05:24:45.449Z,7.73
2023-01-12T05:27:13.174Z,9.27
2023-01-12T05:29:40.895Z,8.53
2023-01-12T05:32:08.691Z,5.93
2023-01-12T05:34:36.469Z,6.67
2023-01-12T05:37:04.310Z,4.67
2023-01-12T05:39:33.563Z,7.83
2023-01-12T05:42:18.912Z,6.53
2023-01-12T05:44:46.641Z,9.87
2023-01-12T05:47:14.451Z,7.30
2023-01-12T05:49:42.176Z,5.23
2023-01-12T05:52:09.955Z,7.13
2023-01-12T05:54:39.121Z,4.17
2023-01-12T05:57:06.891Z,9.27
2023-01-12T05:59:34.704Z,7.30
2023-01-12T06:02:02.573Z,6.90
2023-01-12T06:04:30.342Z,5.43
2023-01-12T06:06:58.214Z,8.47
2023-01-12T06:09:25.928Z,4.00
2023-01-12T06:12:12.536Z,7.30
2023-01-12T06:14:40.327Z,8.77
2023-01-12T06:17:08.256Z,5.60
2023-01-12T06:19:36.102Z,7.13
2023-01-12T06:22:04.072Z,6.40
2023-01-12T06:24:31.821Z,5.43
2023-01-12T06:27:01.264Z,4.90
2023-01-12T06:29:29.240Z,7.63
2023-01-12T06:31:57.095Z,7.00
2023-01-12T06:34:24.872Z,11.63
2023-01-12T06:36:52.624Z,4.30
2023-01-12T06:39:20.441Z,7.87
2023-01-12T06:42:05.743Z,9.20
2023-01-12T06:44:34.974Z,9.67
2023-01-12T06:47:03.608Z,11.80
2023-01-12T06:49:31.475Z,5.87
2023-01-12T06:51:59.397Z,7.83
2023-01-12T06:54:27.107Z,11.50
2023-01-12T06:56:55.657Z,6.53
2023-01-12T06:59:23.530Z,7.50
2023-01-12T07:01:53.019Z,7.70
2023-01-12T07:04:20.876Z,9.67
2023-01-12T07:06:49.100Z,4.40
2023-01-12T07:09:16.786Z,8.27
2023-01-12T07:11:44.527Z,8.03
2023-01-12T07:14:12.305Z,8.97
2023-01-12T07:16:40.248Z,13.83
2023-01-12T07:19:09.529Z,8.63
2023-01-12T07:21:37.361Z,8.40
2023-01-12T07:24:05.393Z,6.47
2023-01-12T07:26:33.285Z,8.20
2023-01-12T07:29:01.085Z,11.30
2023-01-12T07:31:29.280Z,6.23
2023-01-12T07:33:57.289Z,6.90
2023-01-12T07:36:26.749Z,6.70
2023-01-12T07:38:54.669Z,8.87
2023-01-12T07:41:40.204Z,7.80
2023-01-12T07:44:07.935Z,11.80
2023-01-12T07:46:36.106Z,14.90
2023-01-12T07:49:04.078Z,7.33
2023-01-12T07:51:33.220Z,5.20
2023-01-12T07:54:01.166Z,14.17
2023-01-12T07:56:28.982Z,5.20
2023-01-12T07:58:56.741Z,7.23
2023-01-12T08:01:24.741Z,8.17
2023-01-12T08:03:52.657Z,5.23
2023-01-12T08:06:20.398Z,5.17
2023-01-12T08:08:49.530Z,6.37
2023-01-12T08:11:17.242Z,8.47
2023-01-12T08:13:44.944Z,5.77
2023-01-12T08:16:17.408Z,8.10
2023-01-12T08:18:49.286Z,6.90
2023-01-12T08:21:21.727Z,7.57
2023-01-12T08:23:54.762Z,7.30
2023-01-12T08:26:27.301Z,8.67
2023-01-12T08:28:59.252Z,4.97
2023-01-12T08:31:28.029Z,8.10
2023-01-12T08:33:57.258Z,8.33
2023-01-12T08:36:26.766Z,5.93
2023-01-12T08:38:57.376Z,7.20
2023-01-12T08:41:34.303Z,6.17
2023-01-12T08:44:07.192Z,7.43
2023-01-12T08:46:37.521Z,7.83
2023-01-12T08:49:12.066Z,5.73
2023-01-12T08:51:45.612Z,11.70
2023-01-12T08:54:19.364Z,4.20
2023-01-12T08:56:47.770Z,4.67
2023-01-12T08:59:16.326Z,4.83
2023-01-12T09:01:44.760Z,4.50
2023-01-12T09:04:13.031Z,8.77
2023-01-12T09:06:42.619Z,3.63
2023-01-12T09:09:12.369Z,7.53
2023-01-12T09:11:43.578Z,6.53
2023-01-12T09:14:11.780Z,4.70
2023-01-12T09:16:40.127Z,12.23
2023-01-12T09:19:08.045Z,5.03
2023-01-12T09:21:39.064Z,13.90
2023-01-12T09:24:10.601Z,4.20
2023-01-12T09:26:39.955Z,6.10
2023-01-12T09:29:11.369Z,8.80
2023-01-12T09:31:41.275Z,8.23
2023-01-12T09:34:09.599Z,12.43
2023-01-12T09:36:40.007Z,6.53
2023-01-12T09:39:12.792Z,5.40
2023-01-12T09:42:05.658Z,2.97
2023-01-12T09:44:55.139Z,10.83
2023-01-12T09:47:29.619Z,5.60
2023-01-12T09:50:10.660Z,9.00
2023-01-12T09:52:42.316Z,6.80
2023-01-12T09:55:16.447Z,7.63
2023-01-12T09:58:15.190Z,6.93
2023-01-12T10:00:46.709Z,11.50
2023-01-12T10:03:27.157Z,8.13
2023-01-12T10:06:00.391Z,6.93
2023-01-12T10:08:33.616Z,7.03
2023-01-12T10:11:09.021Z,7.50
2023-01-12T10:13:53.140Z,9.27
2023-01-12T10:16:31.872Z,3.43
2023-01-12T10:19:11.970Z,4.37
2023-01-12T10:21:42.727Z,7.43
2023-01-12T10:24:13.844Z,6.60
2023-01-12T10:26:44.329Z,5.03
2023-01-12T10:29:13.769Z,6.47
2023-01-12T10:31:43.235Z,5.83
2023-01-12T10:34:13.338Z,5.50
2023-01-12T10:36:44.621Z,4.83
2023-01-12T10:39:31.003Z,9.27
2023-01-12T10:42:39.082Z,9.97
2023-01-12T10:45:21.317Z,8.10
2023-01-12T10:47:53.555Z,10.13
2023-01-12T10:50:24.237Z,10.90
2023-01-12T10:52:57.304Z,11.47
2023-01-12T10:55:29.785Z,5.83
2023-01-12T10:57:57.830Z,3.60
2023-01-12T11:00:27.937Z,6.20
2023-01-12T11:02:58.491Z,7.13
2023-01-12T11:05:39.589Z,6.63
2023-01-12T11:08:24.486Z,13.03
2023-01-12T11:10:52.533Z,4.47
2023-01-12T11:13:27.707Z,7.13
2023-01-12T11:16:06.650Z,11.00
2023-01-12T11:18:42.023Z,5.97
2023-01-12T11:21:14.033Z,3.10
2023-01-12T11:23:57.488Z,2.73
2023-01-12T11:26:30.975Z,4.10
2023-01-12T11:29:04.122Z,3.73
2023-01-12T11:31:38.512Z,3.93
2023-01-12T11:34:17.974Z,8.20
2023-01-12T11:36:49.125Z,5.13
2023-01-12T11:39:21.797Z,5.40
2023-01-12T11:42:06.914Z,6.87
2023-01-12T11:44:40.950Z,10.40
2023-01-12T11:47:14.534Z,9.33
2023-01-12T11:49:53.363Z,6.90
2023-01-12T11:52:21.644Z,3.00
2023-01-12T11:54:49.642Z,5.57
2023-01-12T11:57:32.069Z,9.13
2023-01-12T12:00:13.345Z,6.97
2023-01-12T12:02:47.157Z,7.30
2023-01-12T12:05:30.012Z,7.37
2023-01-12T12:08:13.542Z,7.77
2023-01-12T12:10:48.867Z,5.03
2023-01-12T12:13:34.692Z,7.10
2023-01-12T12:16:17.678Z,5.30
2023-01-12T12:19:12.097Z,9.87
2023-01-12T12:21:48.821Z,16.97
2023-01-12T12:24:28.273Z,5.47
2023-01-12T12:27:04.992Z,4.90
2023-01-12T12:29:54.546Z,4.23
2023-01-12T12:32:32.069Z,4.63
2023-01-12T12:35:14.807Z,3.53
2023-01-12T12:37:52.362Z,4.43
2023-01-12T12:40:55.283Z,7.00
2023-01-12T12:43:48.137Z,1.90
2023-01-12T12:46:24.204Z,4.60
2023-01-12T12:49:01.185Z,1.77
2023-01-12T12:51:31.877Z,6.90
2023-01-12T12:54:06.615Z,4.43
2023-01-12T12:56:37.202Z,3.53
2023-01-12T12:59:05.510Z,2.80
2023-01-12T13:01:42.297Z,6.77
2023-01-12T13:04:12.466Z,3.53
2023-01-12T13:06:43.723Z,2.97
2023-01-12T13:09:42.187Z,2.47
2023-01-12T13:12:20.578Z,2.63
2023-01-12T13:15:17.545Z,1.67
2023-01-12T13:17:52.837Z,5.00
2023-01-12T13:20:59.658Z,1.27
2023-01-12T13:24:17.275Z,5.27
2023-01-12T13:26:52.269Z,1.93
2023-01-12T13:29:50.175Z,2.40
2023-01-12T13:32:41.530Z,2.70
2023-01-12T13:36:09.093Z,4.87
2023-01-12T13:38:53.457Z,3.37
2023-01-12T13:41:43.081Z,3.83
2023-01-12T13:44:17.796Z,2.93
2023-01-12T13:46:48.494Z,4.07
2023-01-12T13:49:27.528Z,8.50
2023-01-12T13:52:01.063Z,4.37
2023-01-12T13:54:29.712Z,2.63
2023-01-12T13:57:00.080Z,1.50
2023-01-12T13:59:30.871Z,1.57
2023-01-12T14:01:59.199Z,1.33
2023-01-12T14:04:58.472Z,1.57
2023-01-12T14:07:47.220Z,4.00
2023-01-12T14:10:27.383Z,2.30
2023-01-12T14:13:36.874Z,5.57
2023-01-12T14:16:30.597Z,4.40
2023-01-12T14:18:58.950Z,2.00
2023-01-12T14:21:29.461Z,2.47
2023-01-12T14:24:16.378Z,1.87
2023-01-12T14:26:47.751Z,1.27
2023-01-12T14:29:16.100Z,1.70
2023-01-12T14:31:48.330Z,15.87
2023-01-12T14:34:28.789Z,6.67
2023-01-12T14:36:59.236Z,2.10
2023-01-12T14:39:29.363Z,4.30
2023-01-12T14:42:15.999Z,0.90
2023-01-12T14:45:08.788Z,2.17
2023-01-12T14:47:38.780Z,3.63
2023-01-12T14:50:17.296Z,3.53
2023-01-12T14:52:47.073Z,4.67
2023-01-12T14:55:16.629Z,2.27
2023-01-12T14:57:48.740Z,3.33
2023-01-12T15:00:23.051Z,1.97
2023-01-12T15:02:54.468Z,2.40
2023-01-12T15:05:25.628Z,5.27
2023-01-12T15:07:56.317Z,2.63
2023-01-12T15:10:30.621Z,1.13
2023-01-12T15:13:00.492Z,1.93
2023-01-12T15:15:51.061Z,1.87
2023-01-12T15:18:38.947Z,1.23
2023-01-12T15:21:24.897Z,3.43
2023-01-12T15:24:21.778Z,1.70
2023-01-12T15:27:01.929Z,3.70
2023-01-12T15:29:34.394Z,2.53
2023-01-12T15:32:02.921Z,2.77
2023-01-12T15:34:34.368Z,1.63
2023-01-12T15:37:02.417Z,2.40
2023-01-12T15:39:30.510Z,3.03
2023-01-12T15:42:15.946Z,2.90
2023-01-12T15:44:44.657Z,4.33
2023-01-12T15:47:13.450Z,2.40
2023-01-12T15:49:44.189Z,4.03
2023-01-12T15:52:14.792Z,4.27
2023-01-12T15:54:45.712Z,2.07
2023-01-12T15:57:15.323Z,2.87
2023-01-12T15:59:43.592Z,4.73
2023-01-12T16:02:26.286Z,3.50
2023-01-12T16:04:58.650Z,1.77
2023-01-12T16:07:26.509Z,3.40
2023-01-12T16:09:55.753Z,1.80
2023-01-12T16:12:24.262Z,1.80
2023-01-12T16:14:53.347Z,1.30
2023-01-12T16:17:23.751Z,2.23
2023-01-12T16:19:51.956Z,1.90
2023-01-12T16:22:25.137Z,1.57
2023-01-12T16:24:55.011Z,1.40
2023-01-12T16:27:26.184Z,19.60
2023-01-12T16:29:54.684Z,7.37
2023-01-12T16:32:25.133Z,2.30
2023-01-12T16:34:53.553Z,1.70
2023-01-12T16:37:27.478Z,5.20
2023-01-12T16:39:55.725Z,2.07
2023-01-12T16:42:24.236Z,14.17
2023-01-12T16:44:52.168Z,4.43
2023-01-12T16:47:21.542Z,2.60
2023-01-12T16:49:50.192Z,5.27
2023-01-12T16:52:21.285Z,4.60
2023-01-12T16:54:50.610Z,3.63
2023-01-12T16:57:19.937Z,3.77
2023-01-12T16:59:50.864Z,5.47
2023-01-12T17:02:19.948Z,1.73
2023-01-12T17:04:51.959Z,3.77
2023-01-12T17:07:20.100Z,1.67
2023-01-12T17:09:48.445Z,4.17
2023-01-12T17:12:18.342Z,5.00
2023-01-12T17:14:46.330Z,2.13
2023-01-12T17:17:14.181Z,2.20
2023-01-12T17:19:43.821Z,3.03
2023-01-12T17:22:12.916Z,1.70
2023-01-12T17:24:41.986Z,5.40
2023-01-12T17:27:11.548Z,2.07
2023-01-12T17:29:40.994Z,2.23
2023-01-12T17:32:09.347Z,1.80
2023-01-12T17:34:39.498Z,3.93
2023-01-12T17:37:08.859Z,8.30
2023-01-12T17:39:39.706Z,2.00
2023-01-12T17:42:25.014Z,3.03
2023-01-12T17:44:54.192Z,3.20
2023-01-12T17:47:21.987Z,1.13
2023-01-12T17:49:49.809Z,2.93
2023-01-12T17:52:18.193Z,1.40
2023-01-12T17:54:45.940Z,2.47
2023-01-12T17:57:13.839Z,2.57
2023-01-12T17:59:41.752Z,3.13
2023-01-12T18:02:14.338Z,4.07
2023-01-12T18:04:42.515Z,1.47
2023-01-12T18:07:10.644Z,2.80
2023-01-12T18:09:38.519Z,1.17
2023-01-12T18:12:06.745Z,2.90
2023-01-12T18:14:35.084Z,1.50
2023-01-12T18:17:02.856Z,2.33
2023-01-12T18:19:33.333Z,2.97
2023-01-12T18:22:05.910Z,9.80
2023-01-12T18:24:33.876Z,3.80
2023-01-12T18:27:01.743Z,3.67
2023-01-12T18:29:29.667Z,3.03
2023-01-12T18:31:57.517Z,2.60
2023-01-12T18:34:25.524Z,3.23
2023-01-12T18:36:55.058Z,2.10
2023-01-12T18:39:23.031Z,2.00
2023-01-12T18:42:08.960Z,1.97
2023-01-12T18:44:37.979Z,1.53
2023-01-12T18:47:23.439Z,3.50
2023-01-12T18:49:51.830Z,5.63
2023-01-12T18:52:38.523Z,3.10
2023-01-12T18:55:07.251Z,5.13
2023-01-12T18:57:35.828Z,1.90
2023-01-12T19:00:13.885Z,3.57
2023-01-12T19:02:42.105Z,2.43
2023-01-12T19:05:25.370Z,1.53
2023-01-12T19:08:24.893Z,1.67
2023-01-12T19:10:52.900Z,2.27
2023-01-12T19:13:38.244Z,2.40
2023-01-12T19:16:24.503Z,1.63
2023-01-12T19:18:53.285Z,3.93
2023-01-12T19:21:38.587Z,2.63
2023-01-12T19:24:28.124Z,2.27
2023-01-12T19:27:13.499Z,2.37
2023-01-12T19:29:43.330Z,1.57
2023-01-12T19:32:12.554Z,2.43
2023-01-12T19:34:40.325Z,1.80
2023-01-12T19:37:08.185Z,1.77
2023-01-12T19:39:59.485Z,0.97
2023-01-12T19:42:46.150Z,2.10
2023-01-12T19:45:14.198Z,2.23
2023-01-12T19:47:42.212Z,1.80
2023-01-12T19:50:13.292Z,1.17
2023-01-12T19:52:43.377Z,1.57
2023-01-12T19:55:14.740Z,1.77
2023-01-12T19:57:43.988Z,1.20
2023-01-12T20:00:15.491Z,1.80
2023-01-12T20:02:43.798Z,1.10
2023-01-12T20:05:13.471Z,1.30
2023-01-12T20:07:41.633Z,2.17
2023-01-12T20:10:10.630Z,1.53
2023-01-12T20:12:39.874Z,1.83
2023-01-12T20:15:09.025Z,1.33
2023-01-12T20:17:37.053Z,1.40
2023-01-12T20:20:08.266Z,2.17
2023-01-12T20:22:36.375Z,1.30
2023-01-12T20:25:05.069Z,1.50
2023-01-12T20:27:33.931Z,2.70
2023-01-12T20:30:03.992Z,2.70
2023-01-12T20:32:32.364Z,2.60
2023-01-12T20:35:04.546Z,1.80
2023-01-12T20:37:34.438Z,3.43
2023-01-12T20:40:02.458Z,1.57
2023-01-12T20:42:31.656Z,2.40
2023-01-12T20:44:59.867Z,2.90
2023-01-12T20:47:31.404Z,1.77
2023-01-12T20:50:00.507Z,1.40
2023-01-12T20:52:29.432Z,1.53
2023-01-12T20:54:57.219Z,2.93
2023-01-12T20:57:25.465Z,4.00
2023-01-12T20:59:53.785Z,5.13
2023-01-12T21:02:25.821Z,1.83
2023-01-12T21:04:56.601Z,1.60
2023-01-12T21:07:24.867Z,1.60
2023-01-12T21:10:17.216Z,1.83
2023-01-12T21:12:50.468Z,1.60
2023-01-12T21:15:18.526Z,1.90
2023-01-12T21:17:48.383Z,1.50
2023-01-12T21:21:02.212Z,2.20
2023-01-12T21:23:37.157Z,2.53
2023-01-12T21:26:07.758Z,1.50
2023-01-12T21:28:37.711Z,1.77
2023-01-12T21:31:08.358Z,2.30
2023-01-12T21:33:36.976Z,1.83
2023-01-12T21:36:05.689Z,1.90
2023-01-12T21:38:35.285Z,3.67
2023-01-12T21:41:04.988Z,3.97
2023-01-12T21:43:34.087Z,2.53
2023-01-12T21:46:06.534Z,2.77
2023-01-12T21:48:34.854Z,2.27
2023-01-12T21:51:03.601Z,1.80
2023-01-12T21:53:34.436Z,1.60
2023-01-12T21:56:05.699Z,1.63
2023-01-12T21:58:36.217Z,3.77
2023-01-12T22:01:10.902Z,3.77
2023-01-12T22:03:39.322Z,1.63
2023-01-12T22:06:09.617Z,1.40
2023-01-12T22:08:38.113Z,1.10
2023-01-12T22:11:09.411Z,1.97
2023-01-12T22:13:40.925Z,3.10
2023-01-12T22:16:11.638Z,1.20
2023-01-12T22:18:41.039Z,1.43
2023-01-12T22:21:11.055Z,1.40
2023-01-12T22:23:39.644Z,1.30
2023-01-12T22:26:10.773Z,1.60
2023-01-12T22:28:41.256Z,1.80
2023-01-12T22:31:10.815Z,2.33
2023-01-12T22:33:38.763Z,1.30
2023-01-12T22:36:08.200Z,1.57
2023-01-12T22:38:36.071Z,3.17
2023-01-12T22:41:10.073Z,1.83
2023-01-12T22:44:01.833Z,1.53
2023-01-12T22:46:29.945Z,2.40
2023-01-12T22:48:59.679Z,2.20
2023-01-12T22:51:31.300Z,1.73
2023-01-12T22:53:59.337Z,1.60
2023-01-12T22:56:28.591Z,3.63
2023-01-12T22:58:57.839Z,1.47
2023-01-12T23:01:26.880Z,1.63
2023-01-12T23:03:55.798Z,1.17
2023-01-12T23:06:25.150Z,1.40
2023-01-12T23:08:53.145Z,1.00
2023-01-12T23:11:23.544Z,1.53
2023-01-12T23:13:54.416Z,1.43
2023-01-12T23:16:22.943Z,1.47
2023-01-12T23:18:53.245Z,2.40
2023-01-12T23:21:25.873Z,1.93
2023-01-12T23:24:00.669Z,1.57
2023-01-12T23:26:32.254Z,3.20
2023-01-12T23:29:03.582Z,1.30
2023-01-12T23:31:33.605Z,1.27
2023-01-12T23:34:01.765Z,1.40
2023-01-12T23:36:30.984Z,1.37
2023-01-12T23:39:01.644Z,1.50
2023-01-12T23:41:32.919Z,3.97
2023-01-12T23:44:04.021Z,1.73
2023-01-12T23:46:37.870Z,2.23
2023-01-12T23:49:06.593Z,1.23
2023-01-12T23:51:36.308Z,1.33
2023-01-12T23:54:04.562Z,1.43
2023-01-12T23:56:34.654Z,3.70
2023-01-12T23:59:03.957Z,1.30
